x

Central Caribbean - 210 Nm Sse Of Kingston, Jamaica (42058) Wave Buoy

7:50 - Tue 2nd Sep 2014 All times are EST. -5 hours from GMT.

  • Sig Wave height 6.6ft
  • Swell Direction
  • Peak Period 8s
  • Average Period 6s
  • Wind
    22mph, 25mph gusts
  • Sea Temp 84°f
  • Luft Temp 84°f
  • Sea Pressure 1011mb
  • Central Caribbean - 210 Nm Sse Of Kingston, Jamaica
  • Central Caribbean - 210 Nm Sse Of Kingston, Jamaica

More Historic Weather Station data

Upgrade to MSW Pro to gain access to the past 30 days of data for over 8000 Wavebouys and Weather Stations around the globe.

Join Pro

Comparision Forecast

View Surf forecast
   
Di 09/02 7:50 6.5ft 8s 6s 22 25 mph 1011mb 84f 84f
6:50 7ft 8s 6s 20 25 mph 1010.7mb 84f 84f
5:50 7ft 8s 6s 20 25 mph 1010.8mb 84f 84f
4:50 7ft 8s 6s 20 25 mph 1010.1mb 84f 84f
3:50 7.5ft 8s 6s 22 27 mph 1010.2mb 84f 84f
2:50 7ft 8s 6s 20 22 mph 1011mb 84f 84f
1:50 8ft 8s 6s 16 20 mph 1011.7mb 84f 84f
12:50 8ft 8s 6s 20 25 mph 1011.9mb 84f 84f
11:50 8ft 8s 6s 22 27 mph 1012.4mb 84f 84f
10:50 7.5ft 8s 6s 22 25 mph 1012.9mb 84f 84f
9:50 7ft 7s 6s 20 25 mph 1012.6mb 84f 84f
8:50 7.5ft 8s 6s 22 27 mph 1012.2mb 84f 84f
7:50 7ft 7s 6s 22 27 mph 1012.2mb 84f 84f
6:50 7.5ft 8s 6s 22 27 mph 1011.4mb 84f 84f
5:50 7.5ft 8s 6s 22 27 mph 1010.8mb 84f 83f
4:50 7.5ft 8s 6s 20 25 mph 1010.5mb 84f 83f
3:50 8ft 8s 6s 22 29 mph 1010.1mb 84f 83f
2:50 7ft 8s 6s 22 31 mph 1010mb 84f 83f
1:50 7ft 8s 6s 20 25 mph 1011mb 84f 83f
12:50 8ft 8s 6s 22 29 mph 1011.8mb 84f 84f
Mo 09/01 11:50 7ft 7s 6s 22 29 mph 1012.2mb 84f 84f
10:50 7.5ft 8s 6s 22 29 mph 1012.6mb 84f 84f
9:50 7ft 8s 6s 22 27 mph 1012.5mb 84f 84f
8:50 7ft 8s 6s 22 27 mph 1011.9mb 84f 84f
7:50 7ft 7s 6s 25 27 mph 1011.1mb 84f 83f
6:50 6.5ft 7s 6s 20 25 mph 1011.2mb 84f 84f
5:50 7ft 8s 6s 20 25 mph 1010.9mb 84f 84f
4:50 7ft 7s 6s 20 25 mph 1010.6mb 84f 84f
3:50 7.5ft 8s 6s 20 25 mph 1010.5mb 84f 84f
2:50 7ft 8s 6s 22 25 mph 1011.2mb 84f 84f
1:50 8ft 7s 6s 22 27 mph 1011.5mb 84f 84f
12:50 7ft 7s 6s 20 25 mph 1011.9mb 84f 84f
11:50 7ft 7s 6s 20 25 mph 1012.5mb 84f 84f
10:50 7.5ft 7s 6s 22 29 mph 1012.9mb 84f 84f
9:50 7ft 7s 6s 20 22 mph 1013.4mb 84f 84f
8:50 7.5ft 7s 6s 20 25 mph 1013.4mb 84f 84f
7:50 7.5ft 7s 6s 20 25 mph 1012.5mb 84f 84f
6:50 8ft 8s 6s 22 29 mph 1012mb 84f 84f
5:50 7.5ft 7s 6s 22 27 mph 1011.4mb 84f 83f
4:50 7.5ft 7s 6s 22 27 mph 1011.4mb 84f 83f
3:50 7ft 8s 6s 22 27 mph 1010.9mb 84f 83f
2:50 7.5ft 7s 5s 25 29 mph 1010.9mb 84f 83f
1:50 7.5ft 7s 6s 25 29 mph 1011.1mb 84f 83f
12:50 8ft 7s 6s 22 27 mph 1011.8mb 84f 83f
So 08/31 11:50 7.5ft 7s 6s 25 29 mph 1012.5mb 84f 84f
10:50 7ft 7s 5s 25 29 mph 1012.8mb 84f 83f
9:50 6.5ft 7s 5s 25 29 mph 1012.9mb 84f 84f
8:50 6.5ft 7s 5s 22 29 mph 1013mb 84f 84f
7:50 6ft 7s 5s 22 25 mph 1012.5mb 84f 84f
6:50 6ft 7s 5s 22 25 mph 1012.1mb 84f 84f
5:50 6.5ft 7s 5s 20 25 mph 1011.8mb 84f 84f
4:50 7ft 7s 6s 20 25 mph 1011.8mb 84f 84f
3:50 7ft 7s 6s 22 25 mph 1011.9mb 84f 84f
2:50 7ft 7s 6s 22 27 mph 1012.2mb 84f 84f
1:50 8ft 8s 6s 22 27 mph 1012.4mb 84f 84f
12:50 7.5ft 7s 6s 25 29 mph 1013mb 84f 84f
11:50 8ft 7s 6s 22 29 mph 1013.7mb 84f 84f
10:50 8ft 7s 6s 25 31 mph 1014mb 84f 84f
9:50 8ft 8s 6s 25 29 mph 1013.9mb 84f 84f
8:50 8ft 8s 6s 25 29 mph 1013.3mb 84f 84f
7:50 8ft 8s 6s 25 31 mph 1013mb 84f 84f
6:50 7.5ft 8s 6s 25 29 mph 1012.3mb 84f 83f
5:50 7.5ft 8s 6s 25 29 mph 1012.4mb 84f 83f
4:50 8.5ft 8s 6s 25 29 mph 1012.2mb 84f 83f
3:50 8ft 8s 6s 20 25 mph 1011.9mb 84f 83f
2:50 8.5ft 8s 6s 22 25 mph 1011.6mb 84f 83f
1:50 8.5ft 8s 6s 22 27 mph 1011.9mb 84f 83f
12:50 8.5ft 8s 6s 22 27 mph 1012.4mb 84f 83f
Sa 08/30 11:50 9ft 8s 6s 22 27 mph 1013mb 84f 83f
10:50 9ft 8s 6s 22 27 mph 1013.4mb 84f 84f
9:50 9.5ft 8s 6s 25 29 mph 1013.6mb 84f 84f
8:50 8ft 8s 6s 27 29 mph 1013.6mb 84f 84f
7:50 9ft 8s 6s 27 34 mph 1013mb 84f 84f
6:50 8.5ft 8s 6s 25 29 mph 1012.9mb 84f 84f
5:50 8ft 8s 6s 22 27 mph 1012.9mb 84f 84f
4:50 8ft 8s 6s 20 27 mph 1012.7mb 84f 84f
3:50 9ft 8s 6s 22 27 mph 1012.7mb 84f 84f
2:50 9ft 8s 6s 25 29 mph 1012.6mb 84f 84f
1:50 8ft 8s 6s 22 29 mph 1013.2mb 84f 84f
12:50 10ft 8s 7s 22 27 mph 1013.7mb 84f 84f
11:50 9ft 8s 6s 20 25 mph 1014.6mb 84f 84f
10:50 9ft 8s 7s 20 25 mph 1014.9mb 84f 84f
9:50 8.5ft 9s 6s 22 27 mph 1014.8mb 84f 84f
8:50 8.5ft 8s 6s 22 29 mph 1014.6mb 84f 84f
7:50 9ft 8s 6s 25 29 mph 1014.1mb 84f 84f
5:50 10ft 8s 6s 25 29 mph 1012.6mb 84f 84f
4:50 9ft 8s 6s 25 31 mph 1012.3mb 84f 84f
3:50 8.5ft 9s 6s 22 29 mph 1011.9mb 84f 84f
2:50 9ft 8s 6s 22 29 mph 1012.3mb 84f 84f
1:50 9ft 8s 6s 22 27 mph 1012.8mb 84f 84f